sensor_id;sensor_type;location;lat;lon;timestamp;temperature;humidity
42841;DHT22;28491;46.898;7.660;2023-07-29T00:00:26;18.00;31.40
42841;DHT22;28491;46.898;7.660;2023-07-29T00:02:53;18.00;30.10
42841;DHT22;28491;46.898;7.660;2023-07-29T00:05:18;18.00;27.30
42841;DHT22;28491;46.898;7.660;2023-07-29T00:07:44;18.00;25.10
42841;DHT22;28491;46.898;7.660;2023-07-29T00:10:10;18.00;26.10
42841;DHT22;28491;46.898;7.660;2023-07-29T00:12:35;18.00;26.00
42841;DHT22;28491;46.898;7.660;2023-07-29T00:15:01;18.00;23.40
42841;DHT22;28491;46.898;7.660;2023-07-29T00:17:26;18.10;22.20
42841;DHT22;28491;46.898;7.660;2023-07-29T00:19:52;18.10;20.50
42841;DHT22;28491;46.898;7.660;2023-07-29T00:22:17;18.00;19.80
42841;DHT22;28491;46.898;7.660;2023-07-29T00:24:43;17.90;24.70
42841;DHT22;28491;46.898;7.660;2023-07-29T00:27:08;17.80;24.70
42841;DHT22;28491;46.898;7.660;2023-07-29T00:29:34;17.90;24.50
42841;DHT22;28491;46.898;7.660;2023-07-29T00:31:59;17.90;26.90
42841;DHT22;28491;46.898;7.660;2023-07-29T00:34:25;18.10;25.10
42841;DHT22;28491;46.898;7.660;2023-07-29T00:36:51;18.10;20.70
42841;DHT22;28491;46.898;7.660;2023-07-29T00:39:16;18.10;15.70
42841;DHT22;28491;46.898;7.660;2023-07-29T00:41:42;18.00;16.90
42841;DHT22;28491;46.898;7.660;2023-07-29T00:44:07;18.10;15.10
42841;DHT22;28491;46.898;7.660;2023-07-29T00:46:34;18.00;16.30
42841;DHT22;28491;46.898;7.660;2023-07-29T00:49:01;18.00;19.60
42841;DHT22;28491;46.898;7.660;2023-07-29T00:51:27;17.80;21.20
42841;DHT22;28491;46.898;7.660;2023-07-29T00:53:52;17.60;23.00
42841;DHT22;28491;46.898;7.660;2023-07-29T00:56:18;17.70;25.70
42841;DHT22;28491;46.898;7.660;2023-07-29T00:58:44;17.80;23.40
42841;DHT22;28491;46.898;7.660;2023-07-29T01:01:09;17.80;26.20
42841;DHT22;28491;46.898;7.660;2023-07-29T01:03:35;17.90;23.90
42841;DHT22;28491;46.898;7.660;2023-07-29T01:06:13;18.00;22.90
42841;DHT22;28491;46.898;7.660;2023-07-29T01:08:55;18.10;18.10
42841;DHT22;28491;46.898;7.660;2023-07-29T01:11:52;17.90;17.90
42841;DHT22;28491;46.898;7.660;2023-07-29T01:17:03;18.10;22.40
42841;DHT22;28491;46.898;7.660;2023-07-29T01:19:48;18.10;15.00
42841;DHT22;28491;46.898;7.660;2023-07-29T01:22:16;18.10;18.40
42841;DHT22;28491;46.898;7.660;2023-07-29T01:24:43;18.10;33.00
42841;DHT22;28491;46.898;7.660;2023-07-29T01:27:08;18.10;62.60
42841;DHT22;28491;46.898;7.660;2023-07-29T01:29:34;17.90;63.00
42841;DHT22;28491;46.898;7.660;2023-07-29T01:32:07;17.90;63.00
42841;DHT22;28491;46.898;7.660;2023-07-29T01:34:41;17.80;63.90
42841;DHT22;28491;46.898;7.660;2023-07-29T01:37:12;17.70;65.00
42841;DHT22;28491;46.898;7.660;2023-07-29T01:39:40;17.70;64.70
42841;DHT22;28491;46.898;7.660;2023-07-29T01:42:07;17.70;65.40
42841;DHT22;28491;46.898;7.660;2023-07-29T01:44:33;17.60;65.60
42841;DHT22;28491;46.898;7.660;2023-07-29T01:46:59;17.60;67.10
42841;DHT22;28491;46.898;7.660;2023-07-29T01:49:25;17.60;65.90
42841;DHT22;28491;46.898;7.660;2023-07-29T01:51:50;17.60;66.20
42841;DHT22;28491;46.898;7.660;2023-07-29T01:54:16;17.70;67.10
42841;DHT22;28491;46.898;7.660;2023-07-29T01:56:41;17.60;66.00
42841;DHT22;28491;46.898;7.660;2023-07-29T01:59:07;17.70;65.70
42841;DHT22;28491;46.898;7.660;2023-07-29T02:01:33;17.70;65.90
42841;DHT22;28491;46.898;7.660;2023-07-29T02:03:58;17.70;67.70
42841;DHT22;28491;46.898;7.660;2023-07-29T02:06:24;17.70;66.30
42841;DHT22;28491;46.898;7.660;2023-07-29T02:08:51;17.60;65.50
42841;DHT22;28491;46.898;7.660;2023-07-29T02:11:16;17.80;67.00
42841;DHT22;28491;46.898;7.660;2023-07-29T02:13:42;17.80;68.40
42841;DHT22;28491;46.898;7.660;2023-07-29T02:16:07;17.60;67.90
42841;DHT22;28491;46.898;7.660;2023-07-29T02:18:33;17.60;69.20
42841;DHT22;28491;46.898;7.660;2023-07-29T02:20:59;17.70;73.60
42841;DHT22;28491;46.898;7.660;2023-07-29T02:23:24;17.70;72.10
42841;DHT22;28491;46.898;7.660;2023-07-29T02:25:50;17.60;71.70
42841;DHT22;28491;46.898;7.660;2023-07-29T02:28:15;17.60;81.40
42841;DHT22;28491;46.898;7.660;2023-07-29T02:30:41;17.70;82.00
42841;DHT22;28491;46.898;7.660;2023-07-29T02:33:09;17.60;80.80
42841;DHT22;28491;46.898;7.660;2023-07-29T02:35:35;17.50;81.40
42841;DHT22;28491;46.898;7.660;2023-07-29T02:38:00;17.40;81.20
42841;DHT22;28491;46.898;7.660;2023-07-29T02:40:26;17.40;79.90
42841;DHT22;28491;46.898;7.660;2023-07-29T02:42:52;17.50;81.10
42841;DHT22;28491;46.898;7.660;2023-07-29T02:45:18;17.60;79.50
42841;DHT22;28491;46.898;7.660;2023-07-29T02:47:43;17.50;77.40
42841;DHT22;28491;46.898;7.660;2023-07-29T02:50:09;17.50;79.50
42841;DHT22;28491;46.898;7.660;2023-07-29T02:52:34;17.60;85.90
42841;DHT22;28491;46.898;7.660;2023-07-29T02:55:00;17.50;84.30
42841;DHT22;28491;46.898;7.660;2023-07-29T02:57:26;17.60;88.60
42841;DHT22;28491;46.898;7.660;2023-07-29T02:59:51;17.40;89.90
42841;DHT22;28491;46.898;7.660;2023-07-29T03:02:17;17.40;91.30
42841;DHT22;28491;46.898;7.660;2023-07-29T03:04:42;17.40;92.30
42841;DHT22;28491;46.898;7.660;2023-07-29T03:07:08;17.30;93.00
42841;DHT22;28491;46.898;7.660;2023-07-29T03:09:33;17.30;94.00
42841;DHT22;28491;46.898;7.660;2023-07-29T03:11:59;17.30;94.30
42841;DHT22;28491;46.898;7.660;2023-07-29T03:14:25;17.30;94.80
42841;DHT22;28491;46.898;7.660;2023-07-29T03:16:51;17.20;95.00
42841;DHT22;28491;46.898;7.660;2023-07-29T03:19:16;17.00;95.90
42841;DHT22;28491;46.898;7.660;2023-07-29T03:21:42;17.00;97.20
42841;DHT22;28491;46.898;7.660;2023-07-29T03:24:07;17.10;97.70
42841;DHT22;28491;46.898;7.660;2023-07-29T03:26:33;17.00;98.00
42841;DHT22;28491;46.898;7.660;2023-07-29T03:28:58;17.20;98.00
42841;DHT22;28491;46.898;7.660;2023-07-29T03:31:24;17.20;97.80
42841;DHT22;28491;46.898;7.660;2023-07-29T03:33:50;17.20;97.30
42841;DHT22;28491;46.898;7.660;2023-07-29T03:36:15;17.20;97.90
42841;DHT22;28491;46.898;7.660;2023-07-29T03:38:41;17.10;98.10
42841;DHT22;28491;46.898;7.660;2023-07-29T03:41:08;17.10;98.50
42841;DHT22;28491;46.898;7.660;2023-07-29T03:43:34;17.10;99.20
42841;DHT22;28491;46.898;7.660;2023-07-29T03:46:00;17.10;98.60
42841;DHT22;28491;46.898;7.660;2023-07-29T03:48:25;17.20;98.30
42841;DHT22;28491;46.898;7.660;2023-07-29T03:50:51;17.20;98.40
42841;DHT22;28491;46.898;7.660;2023-07-29T03:53:16;17.20;98.00
42841;DHT22;28491;46.898;7.660;2023-07-29T03:55:42;17.20;98.20
42841;DHT22;28491;46.898;7.660;2023-07-29T03:58:08;17.20;98.10
42841;DHT22;28491;46.898;7.660;2023-07-29T04:00:33;17.20;98.20
42841;DHT22;28491;46.898;7.660;2023-07-29T04:02:59;17.20;98.40
42841;DHT22;28491;46.898;7.660;2023-07-29T04:05:24;17.30;98.60
42841;DHT22;28491;46.898;7.660;2023-07-29T04:07:50;17.30;98.00
42841;DHT22;28491;46.898;7.660;2023-07-29T04:10:16;17.20;98.10
42841;DHT22;28491;46.898;7.660;2023-07-29T04:12:42;17.30;98.00
42841;DHT22;28491;46.898;7.660;2023-07-29T04:15:08;17.20;98.70
42841;DHT22;28491;46.898;7.660;2023-07-29T04:17:34;17.10;98.70
42841;DHT22;28491;46.898;7.660;2023-07-29T04:19:59;17.20;98.70
42841;DHT22;28491;46.898;7.660;2023-07-29T04:22:25;17.10;98.70
42841;DHT22;28491;46.898;7.660;2023-07-29T04:24:50;17.20;99.00
42841;DHT22;28491;46.898;7.660;2023-07-29T04:27:16;17.20;98.60
42841;DHT22;28491;46.898;7.660;2023-07-29T04:29:41;17.10;98.60
42841;DHT22;28491;46.898;7.660;2023-07-29T04:32:07;17.10;98.50
42841;DHT22;28491;46.898;7.660;2023-07-29T04:34:33;17.10;98.40
42841;DHT22;28491;46.898;7.660;2023-07-29T04:36:58;17.20;98.70
42841;DHT22;28491;46.898;7.660;2023-07-29T04:39:24;17.00;98.60
42841;DHT22;28491;46.898;7.660;2023-07-29T04:41:49;17.00;98.70
42841;DHT22;28491;46.898;7.660;2023-07-29T04:44:15;17.10;98.90
42841;DHT22;28491;46.898;7.660;2023-07-29T04:46:40;16.90;98.90
42841;DHT22;28491;46.898;7.660;2023-07-29T04:49:06;16.80;99.10
42841;DHT22;28491;46.898;7.660;2023-07-29T04:51:32;16.90;99.40
42841;DHT22;28491;46.898;7.660;2023-07-29T04:53:58;16.90;99.30
42841;DHT22;28491;46.898;7.660;2023-07-29T04:56:25;16.90;99.30
42841;DHT22;28491;46.898;7.660;2023-07-29T04:58:51;16.90;99.10
42841;DHT22;28491;46.898;7.660;2023-07-29T05:01:16;16.90;99.10
42841;DHT22;28491;46.898;7.660;2023-07-29T05:03:42;16.90;99.30
42841;DHT22;28491;46.898;7.660;2023-07-29T05:06:07;17.00;99.30
42841;DHT22;28491;46.898;7.660;2023-07-29T05:08:33;17.00;99.00
42841;DHT22;28491;46.898;7.660;2023-07-29T05:10:59;17.00;98.80
42841;DHT22;28491;46.898;7.660;2023-07-29T05:13:24;17.00;98.80
42841;DHT22;28491;46.898;7.660;2023-07-29T05:15:50;17.10;98.70
42841;DHT22;28491;46.898;7.660;2023-07-29T05:18:16;17.20;98.70
42841;DHT22;28491;46.898;7.660;2023-07-29T05:20:42;17.30;98.50
42841;DHT22;28491;46.898;7.660;2023-07-29T05:23:08;17.30;98.90
42841;DHT22;28491;46.898;7.660;2023-07-29T05:25:33;17.30;99.30
42841;DHT22;28491;46.898;7.660;2023-07-29T05:28:02;17.30;99.70
42841;DHT22;28491;46.898;7.660;2023-07-29T05:30:29;17.30;99.90
42841;DHT22;28491;46.898;7.660;2023-07-29T05:32:57;17.30;99.80
42841;DHT22;28491;46.898;7.660;2023-07-29T05:35:23;17.30;99.70
42841;DHT22;28491;46.898;7.660;2023-07-29T05:37:49;17.30;99.80
42841;DHT22;28491;46.898;7.660;2023-07-29T05:40:14;17.20;99.80
42841;DHT22;28491;46.898;7.660;2023-07-29T05:42:40;17.30;99.80
42841;DHT22;28491;46.898;7.660;2023-07-29T05:45:06;17.30;99.90
42841;DHT22;28491;46.898;7.660;2023-07-29T05:47:32;17.30;99.90
42841;DHT22;28491;46.898;7.660;2023-07-29T05:49:57;17.40;99.90
42841;DHT22;28491;46.898;7.660;2023-07-29T05:52:23;17.40;99.90
42841;DHT22;28491;46.898;7.660;2023-07-29T05:54:48;17.40;99.90
42841;DHT22;28491;46.898;7.660;2023-07-29T05:57:14;17.40;99.90
42841;DHT22;28491;46.898;7.660;2023-07-29T05:59:40;17.40;99.90
42841;DHT22;28491;46.898;7.660;2023-07-29T06:02:06;17.40;99.90
42841;DHT22;28491;46.898;7.660;2023-07-29T06:04:31;17.40;99.90
42841;DHT22;28491;46.898;7.660;2023-07-29T06:06:57;17.40;99.90
42841;DHT22;28491;46.898;7.660;2023-07-29T06:09:23;17.50;99.90
42841;DHT22;28491;46.898;7.660;2023-07-29T06:11:48;17.60;99.90
42841;DHT22;28491;46.898;7.660;2023-07-29T06:14:14;17.50;99.90
42841;DHT22;28491;46.898;7.660;2023-07-29T06:16:40;17.70;99.90
42841;DHT22;28491;46.898;7.660;2023-07-29T06:19:05;17.60;99.90
42841;DHT22;28491;46.898;7.660;2023-07-29T06:21:34;17.70;99.90
42841;DHT22;28491;46.898;7.660;2023-07-29T06:23:59;17.70;99.90
42841;DHT22;28491;46.898;7.660;2023-07-29T06:26:25;17.80;99.90
42841;DHT22;28491;46.898;7.660;2023-07-29T06:28:50;17.80;99.90
42841;DHT22;28491;46.898;7.660;2023-07-29T06:31:16;17.80;99.90
42841;DHT22;28491;46.898;7.660;2023-07-29T06:33:41;17.80;99.90
42841;DHT22;28491;46.898;7.660;2023-07-29T06:36:07;17.90;99.90
42841;DHT22;28491;46.898;7.660;2023-07-29T06:38:33;17.90;99.90
42841;DHT22;28491;46.898;7.660;2023-07-29T06:40:59;18.00;99.90
42841;DHT22;28491;46.898;7.660;2023-07-29T06:43:24;18.00;99.90
42841;DHT22;28491;46.898;7.660;2023-07-29T06:45:50;18.10;99.90
42841;DHT22;28491;46.898;7.660;2023-07-29T06:48:16;18.10;99.90
42841;DHT22;28491;46.898;7.660;2023-07-29T06:50:43;18.10;99.80
42841;DHT22;28491;46.898;7.660;2023-07-29T06:53:09;18.20;99.70
42841;DHT22;28491;46.898;7.660;2023-07-29T06:55:35;18.20;99.80
42841;DHT22;28491;46.898;7.660;2023-07-29T06:58:00;18.20;99.80
42841;DHT22;28491;46.898;7.660;2023-07-29T07:00:26;18.30;99.90
42841;DHT22;28491;46.898;7.660;2023-07-29T07:02:51;18.30;99.90
42841;DHT22;28491;46.898;7.660;2023-07-29T07:05:17;18.40;99.90
42841;DHT22;28491;46.898;7.660;2023-07-29T07:07:42;18.50;99.90
42841;DHT22;28491;46.898;7.660;2023-07-29T07:10:08;18.30;99.30
42841;DHT22;28491;46.898;7.660;2023-07-29T07:12:34;18.40;99.40
42841;DHT22;28491;46.898;7.660;2023-07-29T07:15:00;18.50;99.40
42841;DHT22;28491;46.898;7.660;2023-07-29T07:17:26;18.50;99.30
42841;DHT22;28491;46.898;7.660;2023-07-29T07:19:52;18.70;99.40
42841;DHT22;28491;46.898;7.660;2023-07-29T07:22:17;18.60;98.90
42841;DHT22;28491;46.898;7.660;2023-07-29T07:24:43;18.70;99.50
42841;DHT22;28491;46.898;7.660;2023-07-29T07:27:09;18.80;99.60
42841;DHT22;28491;46.898;7.660;2023-07-29T07:29:35;18.80;98.50
42841;DHT22;28491;46.898;7.660;2023-07-29T07:32:00;18.80;97.80
42841;DHT22;28491;46.898;7.660;2023-07-29T07:34:26;18.80;97.50
42841;DHT22;28491;46.898;7.660;2023-07-29T07:36:51;18.90;95.20
42841;DHT22;28491;46.898;7.660;2023-07-29T07:39:17;18.90;93.30
42841;DHT22;28491;46.898;7.660;2023-07-29T07:41:44;18.90;94.20
42841;DHT22;28491;46.898;7.660;2023-07-29T07:44:09;19.00;95.20
42841;DHT22;28491;46.898;7.660;2023-07-29T07:46:36;19.00;96.20
42841;DHT22;28491;46.898;7.660;2023-07-29T07:49:01;19.10;97.00
42841;DHT22;28491;46.898;7.660;2023-07-29T07:51:27;19.10;95.20
42841;DHT22;28491;46.898;7.660;2023-07-29T07:53:53;19.20;94.50
42841;DHT22;28491;46.898;7.660;2023-07-29T07:56:18;19.30;95.20
42841;DHT22;28491;46.898;7.660;2023-07-29T07:58:44;19.40;95.60
42841;DHT22;28491;46.898;7.660;2023-07-29T08:01:09;19.50;94.30
42841;DHT22;28491;46.898;7.660;2023-07-29T08:03:35;19.60;93.20
42841;DHT22;28491;46.898;7.660;2023-07-29T08:06:01;19.70;92.60
42841;DHT22;28491;46.898;7.660;2023-07-29T08:08:27;19.80;91.80
42841;DHT22;28491;46.898;7.660;2023-07-29T08:10:54;20.00;88.40
42841;DHT22;28491;46.898;7.660;2023-07-29T08:13:20;20.20;90.40
42841;DHT22;28491;46.898;7.660;2023-07-29T08:15:48;20.20;81.40
42841;DHT22;28491;46.898;7.660;2023-07-29T08:18:13;20.30;80.00
42841;DHT22;28491;46.898;7.660;2023-07-29T08:20:39;20.40;79.50
42841;DHT22;28491;46.898;7.660;2023-07-29T08:23:04;20.30;78.00
42841;DHT22;28491;46.898;7.660;2023-07-29T08:25:30;20.30;75.10
42841;DHT22;28491;46.898;7.660;2023-07-29T08:27:55;20.30;73.50
42841;DHT22;28491;46.898;7.660;2023-07-29T08:30:21;20.40;74.60
42841;DHT22;28491;46.898;7.660;2023-07-29T08:32:46;20.30;75.40
42841;DHT22;28491;46.898;7.660;2023-07-29T08:35:12;20.30;70.20
42841;DHT22;28491;46.898;7.660;2023-07-29T08:37:38;20.30;70.50
42841;DHT22;28491;46.898;7.660;2023-07-29T08:40:03;20.30;70.40
42841;DHT22;28491;46.898;7.660;2023-07-29T08:42:31;20.40;69.50
42841;DHT22;28491;46.898;7.660;2023-07-29T08:45:04;20.40;64.10
42841;DHT22;28491;46.898;7.660;2023-07-29T08:47:31;20.50;62.40
42841;DHT22;28491;46.898;7.660;2023-07-29T08:49:58;20.60;62.60
42841;DHT22;28491;46.898;7.660;2023-07-29T08:52:25;20.60;62.80
42841;DHT22;28491;46.898;7.660;2023-07-29T08:54:51;20.70;65.00
42841;DHT22;28491;46.898;7.660;2023-07-29T08:57:19;20.80;61.60
42841;DHT22;28491;46.898;7.660;2023-07-29T08:59:45;20.80;60.90
42841;DHT22;28491;46.898;7.660;2023-07-29T09:02:11;20.80;50.10
42841;DHT22;28491;46.898;7.660;2023-07-29T09:04:37;20.80;61.60
42841;DHT22;28491;46.898;7.660;2023-07-29T09:07:03;20.90;62.60
42841;DHT22;28491;46.898;7.660;2023-07-29T09:09:32;20.90;60.90
42841;DHT22;28491;46.898;7.660;2023-07-29T09:11:58;20.90;63.10
42841;DHT22;28491;46.898;7.660;2023-07-29T09:14:24;21.00;62.70
42841;DHT22;28491;46.898;7.660;2023-07-29T09:16:49;21.00;61.50
42841;DHT22;28491;46.898;7.660;2023-07-29T09:19:15;21.00;58.10
42841;DHT22;28491;46.898;7.660;2023-07-29T09:21:41;21.00;60.20
42841;DHT22;28491;46.898;7.660;2023-07-29T09:24:07;21.10;59.70
42841;DHT22;28491;46.898;7.660;2023-07-29T09:26:33;21.00;61.50
42841;DHT22;28491;46.898;7.660;2023-07-29T09:28:59;21.00;61.70
42841;DHT22;28491;46.898;7.660;2023-07-29T09:31:29;21.10;58.90
42841;DHT22;28491;46.898;7.660;2023-07-29T09:34:01;21.10;60.20
42841;DHT22;28491;46.898;7.660;2023-07-29T09:36:30;21.10;58.20
42841;DHT22;28491;46.898;7.660;2023-07-29T09:38:57;21.20;61.10
42841;DHT22;28491;46.898;7.660;2023-07-29T09:41:27;21.20;62.70
42841;DHT22;28491;46.898;7.660;2023-07-29T09:43:57;21.20;62.20
42841;DHT22;28491;46.898;7.660;2023-07-29T09:46:24;21.30;62.60
42841;DHT22;28491;46.898;7.660;2023-07-29T09:48:53;21.20;63.10
42841;DHT22;28491;46.898;7.660;2023-07-29T09:51:22;21.20;60.60
42841;DHT22;28491;46.898;7.660;2023-07-29T09:53:51;21.30;63.30
42841;DHT22;28491;46.898;7.660;2023-07-29T09:56:17;21.20;62.00
42841;DHT22;28491;46.898;7.660;2023-07-29T09:58:44;21.20;28.30
42841;DHT22;28491;46.898;7.660;2023-07-29T10:01:11;21.20;55.80
42841;DHT22;28491;46.898;7.660;2023-07-29T10:03:37;21.20;60.40
42841;DHT22;28491;46.898;7.660;2023-07-29T10:06:04;21.10;61.90
42841;DHT22;28491;46.898;7.660;2023-07-29T10:08:31;21.10;56.40
42841;DHT22;28491;46.898;7.660;2023-07-29T10:11:00;21.10;51.00
42841;DHT22;28491;46.898;7.660;2023-07-29T10:13:29;21.10;20.30
42841;DHT22;28491;46.898;7.660;2023-07-29T10:15:54;21.20;28.40
42841;DHT22;28491;46.898;7.660;2023-07-29T10:18:24;21.20;25.40
42841;DHT22;28491;46.898;7.660;2023-07-29T10:20:51;21.20;46.80
42841;DHT22;28491;46.898;7.660;2023-07-29T10:23:18;21.30;47.80
42841;DHT22;28491;46.898;7.660;2023-07-29T10:25:50;21.50;28.00
42841;DHT22;28491;46.898;7.660;2023-07-29T10:28:18;21.60;5.90
42841;DHT22;28491;46.898;7.660;2023-07-29T10:30:45;21.70;18.40
42841;DHT22;28491;46.898;7.660;2023-07-29T10:33:11;21.80;16.20
42841;DHT22;28491;46.898;7.660;2023-07-29T10:36:21;21.80;4.10
42841;DHT22;28491;46.898;7.660;2023-07-29T10:39:07;21.90;1.00
42841;DHT22;28491;46.898;7.660;2023-07-29T10:42:00;22.10;1.00
42841;DHT22;28491;46.898;7.660;2023-07-29T10:47:43;22.30;1.00
42841;DHT22;28491;46.898;7.660;2023-07-29T10:50:18;22.30;1.00
42841;DHT22;28491;46.898;7.660;2023-07-29T10:52:43;22.30;1.00
42841;DHT22;28491;46.898;7.660;2023-07-29T10:55:35;22.40;1.00
42841;DHT22;28491;46.898;7.660;2023-07-29T10:58:13;22.30;1.00
42841;DHT22;28491;46.898;7.660;2023-07-29T11:00:42;22.30;1.00
42841;DHT22;28491;46.898;7.660;2023-07-29T11:03:12;22.40;1.00
42841;DHT22;28491;46.898;7.660;2023-07-29T11:05:44;22.50;1.00
42841;DHT22;28491;46.898;7.660;2023-07-29T11:08:17;22.50;1.00
42841;DHT22;28491;46.898;7.660;2023-07-29T11:10:44;22.60;1.00
42841;DHT22;28491;46.898;7.660;2023-07-29T11:13:12;22.70;1.00
42841;DHT22;28491;46.898;7.660;2023-07-29T11:15:39;22.70;1.00
42841;DHT22;28491;46.898;7.660;2023-07-29T11:18:05;22.70;1.00
42841;DHT22;28491;46.898;7.660;2023-07-29T11:20:33;22.60;1.00
42841;DHT22;28491;46.898;7.660;2023-07-29T11:23:01;22.70;1.00
42841;DHT22;28491;46.898;7.660;2023-07-29T11:25:28;22.70;1.00
42841;DHT22;28491;46.898;7.660;2023-07-29T11:27:58;22.60;1.00
42841;DHT22;28491;46.898;7.660;2023-07-29T11:30:24;22.70;1.00
42841;DHT22;28491;46.898;7.660;2023-07-29T11:33:00;22.60;1.00
42841;DHT22;28491;46.898;7.660;2023-07-29T11:35:26;22.50;1.00
42841;DHT22;28491;46.898;7.660;2023-07-29T11:37:53;22.40;1.00
42841;DHT22;28491;46.898;7.660;2023-07-29T11:40:23;22.40;1.00
42841;DHT22;28491;46.898;7.660;2023-07-29T11:42:52;22.60;1.00
42841;DHT22;28491;46.898;7.660;2023-07-29T11:45:18;22.70;1.00
42841;DHT22;28491;46.898;7.660;2023-07-29T11:47:45;22.70;1.00
42841;DHT22;28491;46.898;7.660;2023-07-29T11:50:12;22.70;1.00
42841;DHT22;28491;46.898;7.660;2023-07-29T11:52:46;22.60;1.00
42841;DHT22;28491;46.898;7.660;2023-07-29T11:55:16;22.60;1.00
42841;DHT22;28491;46.898;7.660;2023-07-29T11:57:42;22.60;1.00
42841;DHT22;28491;46.898;7.660;2023-07-29T12:00:10;22.60;1.00
42841;DHT22;28491;46.898;7.660;2023-07-29T12:02:41;22.60;1.00
42841;DHT22;28491;46.898;7.660;2023-07-29T12:05:13;22.60;1.00
42841;DHT22;28491;46.898;7.660;2023-07-29T12:07:49;22.50;1.00
42841;DHT22;28491;46.898;7.660;2023-07-29T12:10:15;22.60;1.00
42841;DHT22;28491;46.898;7.660;2023-07-29T12:12:45;22.50;1.00
42841;DHT22;28491;46.898;7.660;2023-07-29T12:15:11;22.50;1.00
42841;DHT22;28491;46.898;7.660;2023-07-29T12:17:42;22.50;1.00
42841;DHT22;28491;46.898;7.660;2023-07-29T12:20:09;22.60;1.00
42841;DHT22;28491;46.898;7.660;2023-07-29T12:22:36;22.60;1.00
42841;DHT22;28491;46.898;7.660;2023-07-29T12:25:02;22.60;1.00
42841;DHT22;28491;46.898;7.660;2023-07-29T12:27:30;22.60;1.00
42841;DHT22;28491;46.898;7.660;2023-07-29T12:29:56;22.60;1.00
42841;DHT22;28491;46.898;7.660;2023-07-29T12:32:25;22.60;1.00
42841;DHT22;28491;46.898;7.660;2023-07-29T12:34:56;22.60;1.00
42841;DHT22;28491;46.898;7.660;2023-07-29T12:37:31;22.40;1.00
42841;DHT22;28491;46.898;7.660;2023-07-29T12:39:57;22.40;1.00
42841;DHT22;28491;46.898;7.660;2023-07-29T12:42:22;22.30;1.00
42841;DHT22;28491;46.898;7.660;2023-07-29T12:44:48;22.30;1.00
42841;DHT22;28491;46.898;7.660;2023-07-29T12:47:13;22.30;1.00
42841;DHT22;28491;46.898;7.660;2023-07-29T12:49:39;22.10;1.00
42841;DHT22;28491;46.898;7.660;2023-07-29T12:52:05;22.10;1.00
42841;DHT22;28491;46.898;7.660;2023-07-29T12:54:31;22.10;1.00
42841;DHT22;28491;46.898;7.660;2023-07-29T12:56:56;22.00;1.00
42841;DHT22;28491;46.898;7.660;2023-07-29T12:59:22;22.00;1.00
42841;DHT22;28491;46.898;7.660;2023-07-29T13:01:47;21.90;1.00
42841;DHT22;28491;46.898;7.660;2023-07-29T13:04:13;21.90;1.00
42841;DHT22;28491;46.898;7.660;2023-07-29T13:06:39;21.80;1.00
42841;DHT22;28491;46.898;7.660;2023-07-29T13:09:07;21.70;1.00
42841;DHT22;28491;46.898;7.660;2023-07-29T13:11:33;21.70;1.00
42841;DHT22;28491;46.898;7.660;2023-07-29T13:13:59;21.60;1.00
42841;DHT22;28491;46.898;7.660;2023-07-29T13:16:26;21.60;1.00
42841;DHT22;28491;46.898;7.660;2023-07-29T13:18:51;21.60;1.00
42841;DHT22;28491;46.898;7.660;2023-07-29T13:21:17;21.60;1.00
42841;DHT22;28491;46.898;7.660;2023-07-29T13:23:42;21.60;1.00
42841;DHT22;28491;46.898;7.660;2023-07-29T13:26:08;21.60;1.00
42841;DHT22;28491;46.898;7.660;2023-07-29T14:49:55;20.20;61.10
42841;DHT22;28491;46.898;7.660;2023-07-29T14:52:44;20.20;61.90
42841;DHT22;28491;46.898;7.660;2023-07-29T14:55:10;20.20;62.50
42841;DHT22;28491;46.898;7.660;2023-07-29T14:57:36;20.20;59.50
42841;DHT22;28491;46.898;7.660;2023-07-29T15:00:03;20.20;60.00
42841;DHT22;28491;46.898;7.660;2023-07-29T15:02:29;20.10;34.90
42841;DHT22;28491;46.898;7.660;2023-07-29T15:04:55;20.20;30.90
42841;DHT22;28491;46.898;7.660;2023-07-29T15:07:20;20.10;39.00
42841;DHT22;28491;46.898;7.660;2023-07-29T15:09:46;20.10;42.00
42841;DHT22;28491;46.898;7.660;2023-07-29T15:12:11;20.10;43.20
42841;DHT22;28491;46.898;7.660;2023-07-29T15:14:37;20.00;47.70
42841;DHT22;28491;46.898;7.660;2023-07-29T15:17:03;20.00;54.40
42841;DHT22;28491;46.898;7.660;2023-07-29T15:19:28;19.90;60.00
42841;DHT22;28491;46.898;7.660;2023-07-29T15:21:54;19.80;60.40
42841;DHT22;28491;46.898;7.660;2023-07-29T15:24:19;19.90;60.80
42841;DHT22;28491;46.898;7.660;2023-07-29T15:26:45;19.80;57.80
42841;DHT22;28491;46.898;7.660;2023-07-29T15:29:11;19.80;60.30
42841;DHT22;28491;46.898;7.660;2023-07-29T15:31:36;19.60;60.10
42841;DHT22;28491;46.898;7.660;2023-07-29T15:34:02;19.70;60.40
42841;DHT22;28491;46.898;7.660;2023-07-29T15:36:28;19.60;61.90
42841;DHT22;28491;46.898;7.660;2023-07-29T15:38:53;19.50;62.80
42841;DHT22;28491;46.898;7.660;2023-07-29T15:41:19;19.50;64.60
42841;DHT22;28491;46.898;7.660;2023-07-29T15:43:44;19.40;66.20
42841;DHT22;28491;46.898;7.660;2023-07-29T15:46:10;19.50;67.30
42841;DHT22;28491;46.898;7.660;2023-07-29T15:48:36;19.50;66.10
42841;DHT22;28491;46.898;7.660;2023-07-29T15:51:02;19.50;67.20
42841;DHT22;28491;46.898;7.660;2023-07-29T15:53:28;19.50;66.50
42841;DHT22;28491;46.898;7.660;2023-07-29T15:55:53;19.40;67.70
42841;DHT22;28491;46.898;7.660;2023-07-29T15:58:19;19.40;67.80
42841;DHT22;28491;46.898;7.660;2023-07-29T16:00:44;19.40;66.50
42841;DHT22;28491;46.898;7.660;2023-07-29T16:03:10;19.40;68.10
42841;DHT22;28491;46.898;7.660;2023-07-29T16:05:36;19.30;69.80
42841;DHT22;28491;46.898;7.660;2023-07-29T16:08:01;19.30;69.20
42841;DHT22;28491;46.898;7.660;2023-07-29T16:10:27;19.30;65.80
42841;DHT22;28491;46.898;7.660;2023-07-29T16:12:52;19.20;65.40
42841;DHT22;28491;46.898;7.660;2023-07-29T16:15:18;19.10;64.70
42841;DHT22;28491;46.898;7.660;2023-07-29T16:17:44;19.10;63.80
42841;DHT22;28491;46.898;7.660;2023-07-29T16:20:11;19.00;64.00
42841;DHT22;28491;46.898;7.660;2023-07-29T16:22:37;19.10;68.10
42841;DHT22;28491;46.898;7.660;2023-07-29T16:25:03;19.00;66.30
42841;DHT22;28491;46.898;7.660;2023-07-29T16:27:29;19.00;65.20
42841;DHT22;28491;46.898;7.660;2023-07-29T16:29:58;18.90;66.30
42841;DHT22;28491;46.898;7.660;2023-07-29T16:32:23;18.90;68.60
42841;DHT22;28491;46.898;7.660;2023-07-29T16:34:49;18.90;68.60
42841;DHT22;28491;46.898;7.660;2023-07-29T16:37:15;18.80;67.90
42841;DHT22;28491;46.898;7.660;2023-07-29T16:39:40;18.80;68.90
42841;DHT22;28491;46.898;7.660;2023-07-29T16:42:06;18.90;72.20
42841;DHT22;28491;46.898;7.660;2023-07-29T16:44:32;18.90;70.10
42841;DHT22;28491;46.898;7.660;2023-07-29T16:46:58;18.80;71.20
42841;DHT22;28491;46.898;7.660;2023-07-29T16:49:23;18.70;72.10
42841;DHT22;28491;46.898;7.660;2023-07-29T16:51:57;18.60;72.20
42841;DHT22;28491;46.898;7.660;2023-07-29T16:54:26;18.60;72.50
42841;DHT22;28491;46.898;7.660;2023-07-29T16:56:51;18.60;78.40